createdAt,value
2023-03-17T00:12:37.281Z,19.40
2023-03-17T00:16:17.652Z,17.60
2023-03-17T00:19:51.155Z,12.80
2023-03-17T00:23:26.200Z,14.60
2023-03-17T00:27:00.114Z,17.20
2023-03-17T00:36:55.255Z,12.60
2023-03-17T00:40:31.718Z,16.70
2023-03-17T00:44:05.782Z,17.40
2023-03-17T01:07:53.223Z,16.50
2023-03-17T01:11:15.280Z,12.50
2023-03-17T01:14:48.646Z,16.30
2023-03-17T01:18:23.780Z,15.00
2023-03-17T01:28:15.043Z,14.70
2023-03-17T01:31:50.842Z,14.40
2023-03-17T01:35:24.791Z,15.90
2023-03-17T01:38:58.008Z,15.70
2023-03-17T01:56:08.382Z,13.80
2023-03-17T01:59:48.322Z,17.40
2023-03-17T02:03:21.911Z,15.50
2023-03-17T02:06:58.800Z,14.50
2023-03-17T02:23:48.729Z,23.30
2023-03-17T02:27:28.141Z,20.60
2023-03-17T02:31:01.576Z,25.00
2023-03-17T02:48:39.265Z,14.50
2023-03-17T02:52:13.718Z,14.30
2023-03-17T02:55:39.874Z,12.10
2023-03-17T02:59:13.686Z,14.20
2023-03-17T03:03:12.399Z,22.10
2023-03-17T03:16:34.358Z,20.90
2023-03-17T03:20:13.407Z,23.40
2023-03-17T03:40:31.592Z,22.20
2023-03-17T03:44:05.306Z,31.70
2023-03-17T04:00:58.929Z,40.50
2023-03-17T04:04:32.263Z,35.30
2023-03-17T04:11:31.407Z,38.00
2023-03-17T04:14:04.543Z,44.80
2023-03-17T04:16:37.912Z,48.30
2023-03-17T04:19:11.529Z,45.10
2023-03-17T04:21:45.072Z,48.00
2023-03-17T04:24:17.912Z,49.70
2023-03-17T04:26:50.761Z,44.80
2023-03-17T04:29:24.710Z,61.10
2023-03-17T04:31:57.801Z,48.60
2023-03-17T04:34:30.873Z,35.60
2023-03-17T04:37:03.702Z,44.80
2023-03-17T04:40:02.996Z,53.90
2023-03-17T04:42:36.471Z,52.70
2023-03-17T04:45:12.872Z,51.20
2023-03-17T04:47:48.316Z,54.60
2023-03-17T04:50:21.259Z,53.80
2023-03-17T04:52:54.231Z,62.40
2023-03-17T04:55:27.841Z,62.30
2023-03-17T04:59:01.763Z,50.40
2023-03-17T05:12:31.609Z,55.80
2023-03-17T05:15:05.798Z,57.30
2023-03-17T05:17:38.572Z,47.70
2023-03-17T05:20:14.763Z,39.10
2023-03-17T05:22:47.882Z,47.50
2023-03-17T05:25:21.451Z,54.30
2023-03-17T05:28:54.845Z,50.30
2023-03-17T05:32:28.146Z,53.70
2023-03-17T05:36:03.122Z,52.10
2023-03-17T05:42:35.982Z,51.40
2023-03-17T05:45:11.085Z,45.50
2023-03-17T05:47:44.621Z,60.60
2023-03-17T05:50:18.321Z,49.20
2023-03-17T05:52:55.793Z,50.50
2023-03-17T05:55:29.693Z,49.80
2023-03-17T05:58:05.771Z,52.80
2023-03-17T06:00:39.788Z,47.50
2023-03-17T06:05:43.714Z,40.10
2023-03-17T06:08:17.478Z,43.40
2023-03-17T06:10:50.997Z,38.80
2023-03-17T06:14:26.994Z,28.40
2023-03-17T06:24:59.276Z,35.40
2023-03-17T06:27:32.683Z,37.70
2023-03-17T06:30:08.686Z,35.20
2023-03-17T06:32:42.126Z,33.80
2023-03-17T06:35:15.204Z,34.90
2023-03-17T06:37:48.234Z,37.10
2023-03-17T06:40:22.273Z,27.90
2023-03-17T06:42:54.945Z,34.90
2023-03-17T06:45:28.424Z,21.60
2023-03-17T06:48:01.984Z,33.40
2023-03-17T06:53:06.411Z,29.80
2023-03-17T06:55:39.835Z,34.60
2023-03-17T06:58:13.620Z,32.30
2023-03-17T07:03:18.803Z,29.00
2023-03-17T07:05:51.995Z,30.10
2023-03-17T07:08:25.146Z,37.80
2023-03-17T07:11:00.396Z,43.50
2023-03-17T07:13:37.591Z,42.50
2023-03-17T07:16:13.348Z,49.20
2023-03-17T07:18:46.579Z,45.10
2023-03-17T07:21:19.199Z,45.70
2023-03-17T07:23:51.688Z,55.20
2023-03-17T07:26:26.159Z,44.60
2023-03-17T07:29:01.312Z,38.40
2023-03-17T07:31:34.383Z,38.90
2023-03-17T07:34:07.376Z,38.60
2023-03-17T07:36:40.802Z,37.10
2023-03-17T07:39:14.481Z,38.80
2023-03-17T07:41:53.167Z,35.40
2023-03-17T07:44:27.814Z,35.00
2023-03-17T07:47:01.370Z,34.30
2023-03-17T07:49:41.595Z,37.70
2023-03-17T07:52:16.568Z,31.70
2023-03-17T07:54:49.040Z,32.60
2023-03-17T07:57:22.504Z,29.50
2023-03-17T07:59:55.682Z,31.50
2023-03-17T08:02:28.885Z,34.30
2023-03-17T08:05:02.552Z,31.60
2023-03-17T08:07:36.753Z,28.90
2023-03-17T08:10:23.246Z,24.20
2023-03-17T08:12:56.964Z,25.90
2023-03-17T08:15:31.308Z,26.90
2023-03-17T08:18:04.120Z,27.30
2023-03-17T08:20:37.515Z,23.60
2023-03-17T08:23:10.689Z,25.70
2023-03-17T08:26:07.469Z,24.40
2023-03-17T08:29:41.118Z,23.10
2023-03-17T08:33:14.960Z,19.40
2023-03-17T08:36:34.103Z,19.30
2023-03-17T08:40:18.763Z,18.90
2023-03-17T08:42:53.129Z,15.80
2023-03-17T08:45:26.080Z,16.50
2023-03-17T08:47:58.725Z,17.70
2023-03-17T08:50:31.928Z,16.80
2023-03-17T08:53:05.053Z,16.80
2023-03-17T08:55:39.330Z,17.10
2023-03-17T08:59:15.296Z,17.10
2023-03-17T09:02:51.761Z,13.80
2023-03-17T09:13:04.433Z,19.30
2023-03-17T09:15:38.548Z,16.70
2023-03-17T09:18:11.815Z,14.60
2023-03-17T09:23:16.906Z,13.60
2023-03-17T09:28:20.589Z,17.90
2023-03-17T09:30:54.059Z,12.80
2023-03-17T09:33:27.627Z,14.30
2023-03-17T09:36:02.612Z,14.80
2023-03-17T09:38:36.285Z,14.80
2023-03-17T09:41:30.756Z,14.20
2023-03-17T09:45:41.122Z,11.70
2023-03-17T09:49:21.368Z,16.60
2023-03-17T10:02:57.835Z,10.90
2023-03-17T10:06:37.310Z,8.90
2023-03-17T10:10:17.131Z,8.10
2023-03-17T10:13:29.282Z,8.50
2023-03-17T10:16:03.963Z,9.40
2023-03-17T10:18:46.063Z,8.30
2023-03-17T10:21:19.475Z,7.30
2023-03-17T10:23:49.793Z,9.30
2023-03-17T10:26:32.435Z,10.30
2023-03-17T10:29:04.305Z,9.40
2023-03-17T10:31:37.626Z,7.30
2023-03-17T10:34:18.115Z,10.30
2023-03-17T10:36:51.385Z,8.70
2023-03-17T10:39:23.505Z,9.10
2023-03-17T10:41:59.684Z,9.10
2023-03-17T10:44:44.426Z,6.90
2023-03-17T10:47:32.142Z,8.60
2023-03-17T10:50:18.034Z,8.40
2023-03-17T10:52:52.579Z,8.20
2023-03-17T10:56:00.854Z,8.30
2023-03-17T10:59:32.902Z,7.10
2023-03-17T11:03:23.097Z,8.30
2023-03-17T11:06:39.752Z,6.60
2023-03-17T11:10:23.854Z,7.70
2023-03-17T11:13:17.883Z,8.30
2023-03-17T11:15:54.182Z,6.20
2023-03-17T11:18:30.995Z,7.40
2023-03-17T11:21:05.757Z,9.40
2023-03-17T11:26:41.375Z,8.50
2023-03-17T11:30:21.344Z,7.90
2023-03-17T11:33:58.708Z,7.20
2023-03-17T11:37:48.574Z,7.80
2023-03-17T11:41:42.315Z,10.50
2023-03-17T11:44:27.715Z,9.50
2023-03-17T11:47:08.884Z,7.20
2023-03-17T11:49:40.575Z,6.00
2023-03-17T11:52:22.360Z,7.10
2023-03-17T11:55:04.195Z,5.80
2023-03-17T11:57:43.065Z,6.50
2023-03-17T12:00:19.225Z,8.60
2023-03-17T12:02:56.065Z,7.50
2023-03-17T12:05:28.130Z,9.20
2023-03-17T12:08:01.133Z,6.60
2023-03-17T12:10:40.315Z,7.70
2023-03-17T12:13:17.696Z,7.50
2023-03-17T12:16:54.084Z,9.70
2023-03-17T12:20:34.681Z,9.10
2023-03-17T12:24:12.360Z,5.20
2023-03-17T12:27:50.639Z,6.30
2023-03-17T12:30:29.217Z,6.50
2023-03-17T12:33:11.740Z,6.90
2023-03-17T12:35:42.127Z,6.70
2023-03-17T12:38:17.812Z,9.70
2023-03-17T12:41:23.506Z,7.40
2023-03-17T12:49:06.714Z,8.50
2023-03-17T12:52:45.814Z,7.20
2023-03-17T12:56:22.421Z,9.30
2023-03-17T12:58:54.360Z,7.10
2023-03-17T13:01:33.060Z,5.70
2023-03-17T13:04:26.495Z,6.40
2023-03-17T13:07:09.762Z,6.00
2023-03-17T13:09:50.375Z,6.60
2023-03-17T13:13:06.100Z,6.90
2023-03-17T13:16:40.873Z,6.50
2023-03-17T13:20:20.321Z,6.20
2023-03-17T13:23:58.197Z,9.60
2023-03-17T13:27:46.458Z,6.70
2023-03-17T13:31:36.597Z,8.20
2023-03-17T13:45:18.154Z,6.40
2023-03-17T13:48:52.345Z,5.90
2023-03-17T13:52:32.807Z,9.10
2023-03-17T13:59:13.508Z,9.00
2023-03-17T14:01:53.768Z,6.10
2023-03-17T14:04:30.927Z,6.30
2023-03-17T14:07:12.983Z,6.30
2023-03-17T14:09:46.625Z,8.30
2023-03-17T14:12:26.820Z,5.40
2023-03-17T14:16:07.896Z,7.60
2023-03-17T14:23:06.983Z,12.70
2023-03-17T14:26:41.621Z,7.70
2023-03-17T14:29:19.642Z,6.70
2023-03-17T14:32:00.731Z,9.10
2023-03-17T14:34:33.836Z,6.30
2023-03-17T14:37:08.034Z,6.80
2023-03-17T14:39:50.061Z,6.30
2023-03-17T14:42:28.001Z,5.50
2023-03-17T14:46:08.442Z,14.30
2023-03-17T14:49:35.472Z,9.80
2023-03-17T14:53:17.243Z,5.60
2023-03-17T14:57:00.344Z,5.70
2023-03-17T14:59:36.054Z,7.50
2023-03-17T15:02:24.253Z,8.10
2023-03-17T15:04:59.840Z,7.20
2023-03-17T15:07:41.267Z,7.40
2023-03-17T15:10:25.065Z,7.80
2023-03-17T15:13:07.749Z,6.30
2023-03-17T15:16:44.246Z,6.50
2023-03-17T15:20:21.729Z,27.60
2023-03-17T15:23:56.473Z,9.50
2023-03-17T15:27:30.459Z,9.90
2023-03-17T15:30:06.694Z,6.80
2023-03-17T15:32:39.821Z,6.30
2023-03-17T15:35:15.424Z,10.00
2023-03-17T15:37:48.998Z,8.70
2023-03-17T15:40:22.679Z,5.90
2023-03-17T15:42:55.514Z,6.70
2023-03-17T15:46:32.712Z,7.60
2023-03-17T15:50:24.336Z,9.40
2023-03-17T16:07:19.238Z,9.10
2023-03-17T16:10:53.439Z,7.90
2023-03-17T16:14:28.418Z,7.80
2023-03-17T16:18:04.618Z,7.30
2023-03-17T16:21:39.455Z,10.20
2023-03-17T16:25:05.397Z,7.90
2023-03-17T16:28:21.746Z,7.70
2023-03-17T16:30:56.130Z,8.40
2023-03-17T16:33:35.390Z,7.90
2023-03-17T16:36:08.712Z,6.50
2023-03-17T16:38:41.719Z,8.60
2023-03-17T16:41:25.247Z,8.10
2023-03-17T16:44:52.058Z,7.40
2023-03-17T16:48:25.696Z,9.70
2023-03-17T16:51:56.341Z,7.00
2023-03-17T16:55:30.916Z,7.70
2023-03-17T16:59:05.162Z,6.80
2023-03-17T17:02:39.053Z,9.00
2023-03-17T17:06:06.314Z,7.90
2023-03-17T17:09:44.756Z,7.70
2023-03-17T17:13:17.141Z,9.40
2023-03-17T17:15:50.730Z,8.60
2023-03-17T17:20:57.090Z,13.40
2023-03-17T17:23:30.944Z,12.70
2023-03-17T17:26:03.493Z,10.50
2023-03-17T17:28:36.707Z,10.90
2023-03-17T17:31:10.067Z,9.90
2023-03-17T17:33:43.792Z,10.90
2023-03-17T17:36:18.717Z,10.50
2023-03-17T17:38:52.429Z,11.10
2023-03-17T17:41:25.297Z,9.20
2023-03-17T17:43:57.946Z,9.20
2023-03-17T17:46:33.687Z,11.00
2023-03-17T17:49:07.146Z,11.20
2023-03-17T17:51:42.614Z,10.20
2023-03-17T17:54:16.066Z,19.20
2023-03-17T17:57:13.835Z,13.40
2023-03-17T17:59:47.552Z,15.00
2023-03-17T18:02:21.104Z,24.00
2023-03-17T18:05:16.985Z,13.20
2023-03-17T18:07:51.083Z,15.50
2023-03-17T18:10:26.922Z,15.00
2023-03-17T18:13:08.481Z,11.30
2023-03-17T18:16:50.425Z,18.20
2023-03-17T18:20:31.058Z,18.90
2023-03-17T18:24:16.174Z,16.90
2023-03-17T18:27:58.060Z,31.90
2023-03-17T18:44:50.424Z,18.20
2023-03-17T18:47:32.912Z,15.90
2023-03-17T18:50:12.237Z,16.40
2023-03-17T18:52:51.901Z,16.10
2023-03-17T18:55:32.903Z,14.60
2023-03-17T18:58:14.511Z,13.90
2023-03-17T19:00:53.266Z,16.10
2023-03-17T19:03:33.595Z,16.50
2023-03-17T19:06:18.991Z,17.80
2023-03-17T19:08:56.976Z,17.80
2023-03-17T19:11:36.696Z,20.50
2023-03-17T19:14:16.660Z,20.30
2023-03-17T19:16:56.646Z,16.80
2023-03-17T19:19:35.836Z,23.20
2023-03-17T19:22:17.720Z,17.80
2023-03-17T19:24:52.430Z,19.70
2023-03-17T19:27:25.316Z,18.40
2023-03-17T19:31:04.310Z,18.70
2023-03-17T19:34:42.289Z,18.30
2023-03-17T19:38:15.661Z,16.00
2023-03-17T19:44:40.541Z,17.50
2023-03-17T19:47:13.223Z,17.10
2023-03-17T19:49:46.542Z,17.30
2023-03-17T19:52:19.480Z,20.10
2023-03-17T19:54:57.482Z,16.80
2023-03-17T19:57:31.650Z,20.50
2023-03-17T20:00:06.139Z,23.90
2023-03-17T20:02:48.202Z,20.50
2023-03-17T20:05:26.870Z,19.40
2023-03-17T20:08:28.750Z,16.80
2023-03-17T20:11:08.037Z,20.10
2023-03-17T20:14:08.367Z,21.20
2023-03-17T20:17:51.942Z,21.70
2023-03-17T20:21:30.371Z,20.80
2023-03-17T20:25:10.348Z,20.70
2023-03-17T20:28:59.894Z,22.00
2023-03-17T20:31:34.271Z,20.30
2023-03-17T20:34:08.200Z,20.80
2023-03-17T20:36:43.504Z,22.00
2023-03-17T20:39:20.233Z,23.60
2023-03-17T20:41:57.902Z,24.40
2023-03-17T20:44:33.626Z,25.50
2023-03-17T20:47:07.278Z,26.50
2023-03-17T20:49:40.785Z,24.10
2023-03-17T20:52:15.362Z,21.90
2023-03-17T20:54:53.622Z,21.90
2023-03-17T20:57:26.909Z,22.50
2023-03-17T21:01:03.246Z,24.40
2023-03-17T21:04:10.672Z,23.10
2023-03-17T21:08:03.616Z,23.40
2023-03-17T21:14:41.462Z,23.20
2023-03-17T21:17:14.778Z,26.30
2023-03-17T21:19:47.968Z,22.60
2023-03-17T21:22:20.897Z,28.60
2023-03-17T21:24:54.294Z,23.70
2023-03-17T21:27:27.288Z,21.90
2023-03-17T21:31:00.835Z,22.10
2023-03-17T21:34:28.752Z,21.30
2023-03-17T21:38:06.082Z,24.40
2023-03-17T21:44:52.546Z,24.90
2023-03-17T21:47:25.116Z,24.20
2023-03-17T21:50:00.776Z,26.00
2023-03-17T21:52:33.830Z,26.10
2023-03-17T21:55:11.598Z,31.00
2023-03-17T21:57:44.659Z,20.60
2023-03-17T22:00:19.454Z,21.20
2023-03-17T22:02:53.016Z,23.50
2023-03-17T22:07:57.641Z,27.00
2023-03-17T22:10:30.842Z,23.50
2023-03-17T22:13:06.072Z,23.60
2023-03-17T22:15:39.009Z,21.10
2023-03-17T22:18:11.901Z,23.50
2023-03-17T22:20:45.291Z,25.00
2023-03-17T22:25:50.101Z,24.80
2023-03-17T22:28:25.049Z,22.80
2023-03-17T22:32:18.871Z,22.60
2023-03-17T22:35:55.930Z,20.50
2023-03-17T22:42:48.040Z,21.00
2023-03-17T22:45:21.477Z,24.30
2023-03-17T22:47:57.425Z,16.40
2023-03-17T22:50:33.809Z,22.10
2023-03-17T22:53:07.306Z,18.90
2023-03-17T22:55:41.835Z,17.70
2023-03-17T22:58:14.824Z,17.00
2023-03-17T23:01:49.147Z,16.40
2023-03-17T23:15:02.226Z,17.90
2023-03-17T23:17:35.776Z,17.40
2023-03-17T23:20:12.792Z,16.20
2023-03-17T23:22:47.399Z,17.20
2023-03-17T23:25:22.059Z,17.50
2023-03-17T23:27:57.623Z,16.90
2023-03-17T23:31:32.742Z,15.70
2023-03-17T23:47:34.178Z,15.00
2023-03-17T23:50:08.701Z,17.20
2023-03-17T23:52:42.790Z,16.10
2023-03-17T23:55:17.289Z,14.40
2023-03-17T23:57:59.538Z,16.70
